Burry Port, United Kingdom
Current Conditions -  °F | °C
As of 11:50 AM on Friday 24 Oct 2014 (Local Time) from EGOP Reporting Station
Moderate Rain Moderate Rain  
Wind Chill: 13°   Ceiling: 300
Heat Index: 13°   Visibility: 0.93mi
Dew Point: 12°   Wind: 13mph
Humidity: 94%   Direction: 320°NW
Pressure: 29.91"   Gusts: NA
Location:  51.68°N, 4.25°W
Report Text: EGOP 241050Z 32011KT 1500 RA OVC003 13/12 Q1013 AMB
Loading
Personal Weather Stations






























Interactive Weather Map
Tropical Storm Tracking
New forecast layout! Learn more

10-Day Weather Forecast

Advertisements
Track Severe Weather on mobile